sensor_id;sensor_type;location;lat;lon;timestamp;pressure;altitude;pressure_sealevel;temperature;humidity
6528;BME280;64597;42.664;23.256;2023-05-12T00:01:32;94770.13;;;10.29;67.30
6528;BME280;64597;42.664;23.256;2023-05-12T00:04:00;94783.97;;;10.24;66.99
6528;BME280;64597;42.664;23.256;2023-05-12T00:06:27;94784.53;;;10.26;66.97
6528;BME280;64597;42.664;23.256;2023-05-12T00:08:55;94785.47;;;10.32;66.46
6528;BME280;64597;42.664;23.256;2023-05-12T00:11:24;94792.81;;;10.30;66.36
6528;BME280;64597;42.664;23.256;2023-05-12T00:13:56;94777.53;;;10.20;65.99
6528;BME280;64597;42.664;23.256;2023-05-12T00:16:25;94795.66;;;10.28;65.91
6528;BME280;64597;42.664;23.256;2023-05-12T00:18:54;94772.59;;;10.12;66.27
6528;BME280;64597;42.664;23.256;2023-05-12T00:21:21;94789.66;;;10.10;66.14
6528;BME280;64597;42.664;23.256;2023-05-12T00:23:52;94789.97;;;10.02;65.97
6528;BME280;64597;42.664;23.256;2023-05-12T00:26:22;94765.88;;;9.86;66.20
6528;BME280;64597;42.664;23.256;2023-05-12T00:28:49;94794.34;;;10.08;65.79
6528;BME280;64597;42.664;23.256;2023-05-12T00:31:16;94794.44;;;10.01;66.57
6528;BME280;64597;42.664;23.256;2023-05-12T00:33:43;94795.25;;;10.02;67.46
6528;BME280;64597;42.664;23.256;2023-05-12T00:36:12;94729.06;;;9.68;66.80
6528;BME280;64597;42.664;23.256;2023-05-12T00:38:40;94775.00;;;9.84;67.18
6528;BME280;64597;42.664;23.256;2023-05-12T00:41:08;94794.16;;;9.91;66.68
6528;BME280;64597;42.664;23.256;2023-05-12T00:43:36;94773.38;;;9.71;67.42
6528;BME280;64597;42.664;23.256;2023-05-12T00:46:05;94787.84;;;9.80;67.37
6528;BME280;64597;42.664;23.256;2023-05-12T00:48:35;94777.69;;;9.66;68.05
6528;BME280;64597;42.664;23.256;2023-05-12T00:51:05;94805.41;;;9.68;68.14
6528;BME280;64597;42.664;23.256;2023-05-12T00:53:35;94800.66;;;9.59;68.42
6528;BME280;64597;42.664;23.256;2023-05-12T00:56:02;94803.28;;;9.59;68.57
6528;BME280;64597;42.664;23.256;2023-05-12T00:58:28;94808.28;;;9.67;68.28
6528;BME280;64597;42.664;23.256;2023-05-12T01:00:56;94792.19;;;9.57;68.81
6528;BME280;64597;42.664;23.256;2023-05-12T01:03:27;94793.47;;;9.54;69.21
6528;BME280;64597;42.664;23.256;2023-05-12T01:06:15;94807.63;;;9.53;68.91
6528;BME280;64597;42.664;23.256;2023-05-12T01:08:46;94804.75;;;9.55;69.63
6528;BME280;64597;42.664;23.256;2023-05-12T01:11:15;94802.03;;;9.32;69.63
6528;BME280;64597;42.664;23.256;2023-05-12T01:13:45;94803.63;;;9.33;69.83
6528;BME280;64597;42.664;23.256;2023-05-12T01:16:15;94805.66;;;9.31;70.55
6528;BME280;64597;42.664;23.256;2023-05-12T01:18:46;94810.63;;;9.39;70.47
6528;BME280;64597;42.664;23.256;2023-05-12T01:21:18;94813.13;;;9.34;71.00
6528;BME280;64597;42.664;23.256;2023-05-12T01:24:01;94814.91;;;9.22;70.80
6528;BME280;64597;42.664;23.256;2023-05-12T01:26:32;94816.84;;;9.26;70.49
6528;BME280;64597;42.664;23.256;2023-05-12T01:29:00;94806.13;;;9.09;71.09
6528;BME280;64597;42.664;23.256;2023-05-12T01:31:28;94792.53;;;8.94;70.97
6528;BME280;64597;42.664;23.256;2023-05-12T01:33:57;94819.41;;;9.14;71.17
6528;BME280;64597;42.664;23.256;2023-05-12T01:36:27;94808.88;;;9.14;71.18
6528;BME280;64597;42.664;23.256;2023-05-12T01:38:56;94806.63;;;9.18;71.32
6528;BME280;64597;42.664;23.256;2023-05-12T01:41:27;94811.88;;;9.18;71.69
6528;BME280;64597;42.664;23.256;2023-05-12T01:43:56;94814.97;;;9.15;71.34
6528;BME280;64597;42.664;23.256;2023-05-12T01:46:26;94812.09;;;9.17;70.91
6528;BME280;64597;42.664;23.256;2023-05-12T01:48:54;94823.56;;;9.04;70.71
6528;BME280;64597;42.664;23.256;2023-05-12T01:51:20;94819.06;;;9.11;70.86
6528;BME280;64597;42.664;23.256;2023-05-12T01:53:48;94813.78;;;9.11;71.03
6528;BME280;64597;42.664;23.256;2023-05-12T01:56:19;94809.34;;;9.11;71.50
6528;BME280;64597;42.664;23.256;2023-05-12T01:58:48;94811.00;;;9.06;71.18
6528;BME280;64597;42.664;23.256;2023-05-12T02:01:17;94815.03;;;9.08;71.44
6528;BME280;64597;42.664;23.256;2023-05-12T02:03:46;94807.59;;;9.05;71.50
6528;BME280;64597;42.664;23.256;2023-05-12T02:06:15;94796.31;;;8.98;71.66
6528;BME280;64597;42.664;23.256;2023-05-12T02:08:42;94805.97;;;8.86;71.15
6528;BME280;64597;42.664;23.256;2023-05-12T02:11:12;94796.31;;;8.80;72.08
6528;BME280;64597;42.664;23.256;2023-05-12T02:13:38;94809.97;;;8.89;72.11
6528;BME280;64597;42.664;23.256;2023-05-12T02:16:05;94805.44;;;8.96;71.22
6528;BME280;64597;42.664;23.256;2023-05-12T02:18:34;94813.09;;;8.97;71.72
6528;BME280;64597;42.664;23.256;2023-05-12T02:21:05;94804.34;;;8.85;72.16
6528;BME280;64597;42.664;23.256;2023-05-12T02:23:34;94813.47;;;8.83;72.05
6528;BME280;64597;42.664;23.256;2023-05-12T02:26:03;94808.81;;;8.85;72.12
6528;BME280;64597;42.664;23.256;2023-05-12T02:28:28;94809.59;;;8.85;72.29
6528;BME280;64597;42.664;23.256;2023-05-12T02:30:57;94808.41;;;8.81;72.56
6528;BME280;64597;42.664;23.256;2023-05-12T02:33:26;94792.56;;;8.70;72.27
6528;BME280;64597;42.664;23.256;2023-05-12T02:35:54;94739.03;;;8.46;72.26
6528;BME280;64597;42.664;23.256;2023-05-12T02:38:25;94800.41;;;8.94;72.29
6528;BME280;64597;42.664;23.256;2023-05-12T02:40:52;94802.81;;;8.96;72.47
6528;BME280;64597;42.664;23.256;2023-05-12T02:43:18;94804.50;;;8.90;72.13
6528;BME280;64597;42.664;23.256;2023-05-12T02:45:46;94809.31;;;8.93;71.76
6528;BME280;64597;42.664;23.256;2023-05-12T02:48:15;94800.13;;;8.84;72.18
6528;BME280;64597;42.664;23.256;2023-05-12T02:50:46;94817.66;;;8.90;71.75
6528;BME280;64597;42.664;23.256;2023-05-12T02:53:13;94805.50;;;8.89;71.76
6528;BME280;64597;42.664;23.256;2023-05-12T02:55:41;94815.44;;;8.87;71.68
6528;BME280;64597;42.664;23.256;2023-05-12T02:58:12;94814.66;;;8.87;71.50
6528;BME280;64597;42.664;23.256;2023-05-12T03:00:41;94816.47;;;8.86;71.56
6528;BME280;64597;42.664;23.256;2023-05-12T03:03:12;94819.81;;;8.75;71.90
6528;BME280;64597;42.664;23.256;2023-05-12T03:05:40;94827.00;;;8.86;71.55
6528;BME280;64597;42.664;23.256;2023-05-12T03:08:10;94817.28;;;8.87;71.67
6528;BME280;64597;42.664;23.256;2023-05-12T03:10:42;94825.94;;;8.87;71.27
6528;BME280;64597;42.664;23.256;2023-05-12T03:13:11;94826.22;;;8.79;71.58
6528;BME280;64597;42.664;23.256;2023-05-12T03:15:43;94815.59;;;8.74;72.26
6528;BME280;64597;42.664;23.256;2023-05-12T03:18:15;94821.16;;;8.60;71.73
6528;BME280;64597;42.664;23.256;2023-05-12T03:20:45;94821.16;;;8.60;71.97
6528;BME280;64597;42.664;23.256;2023-05-12T03:23:11;94834.84;;;8.68;71.73
6528;BME280;64597;42.664;23.256;2023-05-12T03:25:40;94837.31;;;8.63;72.54
6528;BME280;64597;42.664;23.256;2023-05-12T03:28:08;94802.38;;;8.38;72.12
6528;BME280;64597;42.664;23.256;2023-05-12T03:30:36;94844.59;;;8.61;72.56
6528;BME280;64597;42.664;23.256;2023-05-12T03:33:03;94848.63;;;8.64;71.85
6528;BME280;64597;42.664;23.256;2023-05-12T03:35:29;94844.78;;;8.66;72.03
6528;BME280;64597;42.664;23.256;2023-05-12T03:38:00;94849.63;;;8.63;72.54
6528;BME280;64597;42.664;23.256;2023-05-12T03:40:34;94832.84;;;8.39;72.55
6528;BME280;64597;42.664;23.256;2023-05-12T03:43:02;94850.84;;;8.42;72.10
6528;BME280;64597;42.664;23.256;2023-05-12T03:45:29;94853.06;;;8.39;72.39
6528;BME280;64597;42.664;23.256;2023-05-12T03:47:57;94841.16;;;8.36;72.91
6528;BME280;64597;42.664;23.256;2023-05-12T03:50:25;94844.00;;;8.35;72.78
6528;BME280;64597;42.664;23.256;2023-05-12T03:52:53;94846.81;;;8.40;72.78
6528;BME280;64597;42.664;23.256;2023-05-12T03:55:22;94834.56;;;8.20;73.42
6528;BME280;64597;42.664;23.256;2023-05-12T03:57:50;94825.47;;;8.23;72.81
6528;BME280;64597;42.664;23.256;2023-05-12T04:00:20;94843.19;;;8.34;72.84
6528;BME280;64597;42.664;23.256;2023-05-12T04:02:48;94852.00;;;8.46;72.75
6528;BME280;64597;42.664;23.256;2023-05-12T04:05:17;94862.06;;;8.49;72.56
6528;BME280;64597;42.664;23.256;2023-05-12T04:07:47;94863.03;;;8.55;73.24
6528;BME280;64597;42.664;23.256;2023-05-12T04:10:16;94836.06;;;8.41;73.33
6528;BME280;64597;42.664;23.256;2023-05-12T04:12:44;94856.78;;;8.56;73.33
6528;BME280;64597;42.664;23.256;2023-05-12T04:15:13;94855.09;;;8.61;72.73
6528;BME280;64597;42.664;23.256;2023-05-12T04:17:42;94855.28;;;8.66;72.67
6528;BME280;64597;42.664;23.256;2023-05-12T04:20:08;94869.97;;;8.74;72.51
6528;BME280;64597;42.664;23.256;2023-05-12T04:22:35;94872.38;;;8.75;72.73
6528;BME280;64597;42.664;23.256;2023-05-12T04:25:03;94854.19;;;8.74;73.19
6528;BME280;64597;42.664;23.256;2023-05-12T04:27:31;94863.03;;;8.79;73.38
6528;BME280;64597;42.664;23.256;2023-05-12T04:29:59;94854.56;;;8.77;72.61
6528;BME280;64597;42.664;23.256;2023-05-12T04:32:27;94871.69;;;8.86;72.57
6528;BME280;64597;42.664;23.256;2023-05-12T04:34:55;94858.97;;;8.83;72.56
6528;BME280;64597;42.664;23.256;2023-05-12T04:37:24;94844.03;;;8.77;72.96
6528;BME280;64597;42.664;23.256;2023-05-12T04:39:53;94861.75;;;8.88;72.76
6528;BME280;64597;42.664;23.256;2023-05-12T04:42:19;94865.19;;;8.89;73.27
6528;BME280;64597;42.664;23.256;2023-05-12T04:44:49;94855.47;;;8.89;73.11
6528;BME280;64597;42.664;23.256;2023-05-12T04:47:16;94861.53;;;8.90;72.74
6528;BME280;64597;42.664;23.256;2023-05-12T04:49:44;94874.03;;;8.94;72.17
6528;BME280;64597;42.664;23.256;2023-05-12T04:52:12;94851.47;;;8.87;72.97
6528;BME280;64597;42.664;23.256;2023-05-12T04:54:39;94862.06;;;8.98;72.03
6528;BME280;64597;42.664;23.256;2023-05-12T04:57:07;94864.63;;;9.05;72.70
6528;BME280;64597;42.664;23.256;2023-05-12T04:59:34;94875.75;;;9.07;72.09
6528;BME280;64597;42.664;23.256;2023-05-12T05:02:03;94869.44;;;9.08;71.83
6528;BME280;64597;42.664;23.256;2023-05-12T05:04:30;94867.41;;;9.10;72.37
6528;BME280;64597;42.664;23.256;2023-05-12T05:06:59;94865.59;;;9.10;72.29
6528;BME280;64597;42.664;23.256;2023-05-12T05:09:26;94875.47;;;9.15;72.29
6528;BME280;64597;42.664;23.256;2023-05-12T05:11:57;94872.78;;;9.22;72.57
6528;BME280;64597;42.664;23.256;2023-05-12T05:14:27;94863.31;;;9.14;71.96
6528;BME280;64597;42.664;23.256;2023-05-12T05:16:53;94872.91;;;9.27;72.61
6528;BME280;64597;42.664;23.256;2023-05-12T05:19:23;94875.53;;;9.27;72.74
6528;BME280;64597;42.664;23.256;2023-05-12T05:21:51;94864.72;;;9.17;72.35
6528;BME280;64597;42.664;23.256;2023-05-12T05:24:18;94868.69;;;9.26;72.47
6528;BME280;64597;42.664;23.256;2023-05-12T05:26:49;94867.63;;;9.27;72.64
6528;BME280;64597;42.664;23.256;2023-05-12T05:29:16;94868.81;;;9.12;72.02
6528;BME280;64597;42.664;23.256;2023-05-12T05:31:43;94875.59;;;9.20;71.42
6528;BME280;64597;42.664;23.256;2023-05-12T05:34:10;94873.94;;;9.26;71.47
6528;BME280;64597;42.664;23.256;2023-05-12T05:36:39;94880.56;;;9.28;71.29
6528;BME280;64597;42.664;23.256;2023-05-12T05:39:06;94876.69;;;9.31;72.58
6528;BME280;64597;42.664;23.256;2023-05-12T05:41:37;94889.28;;;9.29;71.93
6528;BME280;64597;42.664;23.256;2023-05-12T05:44:04;94882.41;;;9.28;71.60
6528;BME280;64597;42.664;23.256;2023-05-12T05:46:31;94868.75;;;9.19;71.97
6528;BME280;64597;42.664;23.256;2023-05-12T05:48:58;94884.59;;;9.31;72.01
6528;BME280;64597;42.664;23.256;2023-05-12T05:51:25;94878.31;;;9.32;71.87
6528;BME280;64597;42.664;23.256;2023-05-12T05:53:55;94882.41;;;9.28;71.00
6528;BME280;64597;42.664;23.256;2023-05-12T05:56:24;94886.13;;;9.20;71.60
6528;BME280;64597;42.664;23.256;2023-05-12T05:58:50;94866.16;;;9.12;70.97
6528;BME280;64597;42.664;23.256;2023-05-12T06:01:17;94885.09;;;9.21;70.63
6528;BME280;64597;42.664;23.256;2023-05-12T06:03:44;94885.34;;;9.20;71.42
6528;BME280;64597;42.664;23.256;2023-05-12T06:06:11;94888.16;;;9.18;72.03
6528;BME280;64597;42.664;23.256;2023-05-12T06:08:42;94891.31;;;9.27;71.28
6528;BME280;64597;42.664;23.256;2023-05-12T06:11:12;94886.06;;;9.27;71.04
6528;BME280;64597;42.664;23.256;2023-05-12T06:13:39;94875.22;;;9.17;70.80
6528;BME280;64597;42.664;23.256;2023-05-12T06:16:06;94892.66;;;9.36;71.17
6528;BME280;64597;42.664;23.256;2023-05-12T06:18:33;94892.59;;;9.42;71.33
6528;BME280;64597;42.664;23.256;2023-05-12T06:21:04;94906.53;;;9.43;71.20
6528;BME280;64597;42.664;23.256;2023-05-12T06:23:33;94897.03;;;9.42;70.67
6528;BME280;64597;42.664;23.256;2023-05-12T06:26:02;94894.41;;;9.42;70.25
6528;BME280;64597;42.664;23.256;2023-05-12T06:28:32;94900.09;;;9.39;70.51
6528;BME280;64597;42.664;23.256;2023-05-12T06:30:59;94902.06;;;9.43;70.82
6528;BME280;64597;42.664;23.256;2023-05-12T06:34:00;94900.03;;;9.45;70.50
6528;BME280;64597;42.664;23.256;2023-05-12T06:36:27;94908.56;;;9.41;70.11
6528;BME280;64597;42.664;23.256;2023-05-12T06:38:54;94913.41;;;9.44;70.12
6528;BME280;64597;42.664;23.256;2023-05-12T06:41:20;94902.88;;;9.44;70.36
6528;BME280;64597;42.664;23.256;2023-05-12T06:43:46;94901.13;;;9.56;70.12
6528;BME280;64597;42.664;23.256;2023-05-12T06:46:11;94901.13;;;9.56;70.54
6528;BME280;64597;42.664;23.256;2023-05-12T06:48:37;94906.03;;;9.52;69.19
6528;BME280;64597;42.664;23.256;2023-05-12T06:51:02;94912.53;;;9.50;69.29
6528;BME280;64597;42.664;23.256;2023-05-12T06:53:28;94913.72;;;9.54;69.84
6528;BME280;64597;42.664;23.256;2023-05-12T06:55:54;94916.06;;;9.62;69.65
6528;BME280;64597;42.664;23.256;2023-05-12T06:58:19;94921.31;;;9.62;69.56
6528;BME280;64597;42.664;23.256;2023-05-12T07:00:46;94905.88;;;9.65;70.00
6528;BME280;64597;42.664;23.256;2023-05-12T07:03:12;94906.91;;;9.64;68.47
6528;BME280;64597;42.664;23.256;2023-05-12T07:05:37;94903.47;;;9.64;69.18
6528;BME280;64597;42.664;23.256;2023-05-12T07:08:04;94910.50;;;9.70;69.67
6528;BME280;64597;42.664;23.256;2023-05-12T07:10:29;94914.53;;;9.72;68.46
6528;BME280;64597;42.664;23.256;2023-05-12T07:12:56;94920.06;;;9.64;68.25
6528;BME280;64597;42.664;23.256;2023-05-12T07:15:21;94916.41;;;9.65;68.75
6528;BME280;64597;42.664;23.256;2023-05-12T07:17:47;94913.28;;;9.75;68.44
6528;BME280;64597;42.664;23.256;2023-05-12T07:20:12;94894.94;;;9.68;68.27
6528;BME280;64597;42.664;23.256;2023-05-12T07:22:38;94909.03;;;9.74;68.16
6528;BME280;64597;42.664;23.256;2023-05-12T07:25:03;94919.72;;;9.79;69.51
6528;BME280;64597;42.664;23.256;2023-05-12T07:27:29;94916.41;;;9.65;68.33
6528;BME280;64597;42.664;23.256;2023-05-12T07:29:54;94917.66;;;9.63;67.96
6528;BME280;64597;42.664;23.256;2023-05-12T07:32:20;94910.03;;;9.55;68.01
6528;BME280;64597;42.664;23.256;2023-05-12T07:34:45;94920.97;;;9.58;67.92
6528;BME280;64597;42.664;23.256;2023-05-12T07:37:11;94917.22;;;9.66;68.03
6528;BME280;64597;42.664;23.256;2023-05-12T07:39:36;94913.72;;;9.72;67.88
6528;BME280;64597;42.664;23.256;2023-05-12T07:42:02;94927.63;;;9.79;67.83
6528;BME280;64597;42.664;23.256;2023-05-12T07:44:28;94912.69;;;9.73;68.13
6528;BME280;64597;42.664;23.256;2023-05-12T07:46:55;94921.97;;;9.75;67.39
6528;BME280;64597;42.664;23.256;2023-05-12T07:49:20;94910.41;;;9.76;67.06
6528;BME280;64597;42.664;23.256;2023-05-12T07:51:47;94907.56;;;9.78;67.76
6528;BME280;64597;42.664;23.256;2023-05-12T07:54:12;94923.06;;;9.86;68.00
6528;BME280;64597;42.664;23.256;2023-05-12T07:56:38;94877.56;;;9.61;67.07
6528;BME280;64597;42.664;23.256;2023-05-12T07:59:03;94872.41;;;9.54;67.02
6528;BME280;64597;42.664;23.256;2023-05-12T08:01:29;94911.06;;;9.90;67.06
6528;BME280;64597;42.664;23.256;2023-05-12T08:03:55;94885.84;;;9.82;67.72
6528;BME280;64597;42.664;23.256;2023-05-12T08:06:20;94892.53;;;9.96;67.29
6528;BME280;64597;42.664;23.256;2023-05-12T08:08:46;94909.84;;;10.22;66.99
6528;BME280;64597;42.664;23.256;2023-05-12T08:11:11;94899.13;;;10.24;66.00
6528;BME280;64597;42.664;23.256;2023-05-12T08:13:37;94905.63;;;10.21;65.36
6528;BME280;64597;42.664;23.256;2023-05-12T08:16:02;94911.16;;;10.31;65.76
6528;BME280;64597;42.664;23.256;2023-05-12T08:18:28;94898.72;;;10.50;65.75
6528;BME280;64597;42.664;23.256;2023-05-12T08:20:54;94909.53;;;10.60;64.16
6528;BME280;64597;42.664;23.256;2023-05-12T08:23:19;94904.16;;;10.66;64.76
6528;BME280;64597;42.664;23.256;2023-05-12T08:25:45;94905.41;;;10.64;64.29
6528;BME280;64597;42.664;23.256;2023-05-12T08:28:13;94907.06;;;10.76;64.19
6528;BME280;64597;42.664;23.256;2023-05-12T08:30:38;94909.34;;;10.85;63.77
6528;BME280;64597;42.664;23.256;2023-05-12T08:33:04;94914.25;;;10.69;63.20
6528;BME280;64597;42.664;23.256;2023-05-12T08:35:30;94859.28;;;10.32;63.44
6528;BME280;64597;42.664;23.256;2023-05-12T08:37:56;94893.16;;;10.69;63.85
6528;BME280;64597;42.664;23.256;2023-05-12T08:40:22;94909.94;;;10.98;64.32
6528;BME280;64597;42.664;23.256;2023-05-12T08:43:04;94907.19;;;11.05;62.86
6528;BME280;64597;42.664;23.256;2023-05-12T08:45:31;94906.41;;;11.16;62.63
6528;BME280;64597;42.664;23.256;2023-05-12T08:48:01;94902.28;;;11.20;62.48
6528;BME280;64597;42.664;23.256;2023-05-12T08:50:32;94898.50;;;11.16;62.30
6528;BME280;64597;42.664;23.256;2023-05-12T08:53:02;94911.56;;;11.22;61.44
6528;BME280;64597;42.664;23.256;2023-05-12T08:55:28;94897.91;;;11.25;61.23
6528;BME280;64597;42.664;23.256;2023-05-12T08:57:55;94913.97;;;11.35;61.61
6528;BME280;64597;42.664;23.256;2023-05-12T09:00:22;94907.66;;;11.48;61.91
6528;BME280;64597;42.664;23.256;2023-05-12T09:02:50;94907.31;;;11.68;61.10
6528;BME280;64597;42.664;23.256;2023-05-12T09:05:17;94876.56;;;11.73;61.10
6528;BME280;64597;42.664;23.256;2023-05-12T09:07:43;94884.75;;;11.88;60.14
6528;BME280;64597;42.664;23.256;2023-05-12T09:10:14;94904.41;;;11.92;59.16
6528;BME280;64597;42.664;23.256;2023-05-12T09:12:41;94889.03;;;11.89;59.70
6528;BME280;64597;42.664;23.256;2023-05-12T09:15:10;94888.41;;;11.99;59.70
6528;BME280;64597;42.664;23.256;2023-05-12T09:17:38;94895.28;;;12.11;59.10
6528;BME280;64597;42.664;23.256;2023-05-12T09:20:04;94893.66;;;12.10;59.07
6528;BME280;64597;42.664;23.256;2023-05-12T09:22:32;94883.50;;;12.19;59.08
6528;BME280;64597;42.664;23.256;2023-05-12T09:24:59;94874.75;;;12.30;59.51
6528;BME280;64597;42.664;23.256;2023-05-12T09:27:28;94871.56;;;12.45;58.95
6528;BME280;64597;42.664;23.256;2023-05-12T09:29:54;94881.38;;;12.61;58.78
6528;BME280;64597;42.664;23.256;2023-05-12T09:32:30;94878.00;;;12.65;57.57
6528;BME280;64597;42.664;23.256;2023-05-12T09:35:01;94866.63;;;12.65;57.68
6528;BME280;64597;42.664;23.256;2023-05-12T09:37:31;94880.75;;;12.87;58.25
6528;BME280;64597;42.664;23.256;2023-05-12T09:40:04;94882.69;;;12.91;57.48
6528;BME280;64597;42.664;23.256;2023-05-12T09:42:32;94885.16;;;12.98;57.31
6528;BME280;64597;42.664;23.256;2023-05-12T09:45:01;94886.50;;;13.00;56.40
6528;BME280;64597;42.664;23.256;2023-05-12T09:47:27;94887.81;;;12.98;56.75
6528;BME280;64597;42.664;23.256;2023-05-12T09:49:53;94885.06;;;12.93;56.30
6528;BME280;64597;42.664;23.256;2023-05-12T09:52:22;94865.72;;;13.04;56.56
6528;BME280;64597;42.664;23.256;2023-05-12T09:54:47;94883.88;;;13.17;56.46
6528;BME280;64597;42.664;23.256;2023-05-12T09:57:14;94878.69;;;13.22;56.12
6528;BME280;64597;42.664;23.256;2023-05-12T09:59:42;94874.03;;;12.96;55.82
6528;BME280;64597;42.664;23.256;2023-05-12T10:02:09;94871.56;;;13.06;55.98
6528;BME280;64597;42.664;23.256;2023-05-12T10:04:49;94870.09;;;13.15;55.64
6528;BME280;64597;42.664;23.256;2023-05-12T10:07:15;94878.69;;;13.05;55.62
6528;BME280;64597;42.664;23.256;2023-05-12T10:09:42;94868.72;;;13.12;54.81
6528;BME280;64597;42.664;23.256;2023-05-12T10:12:09;94862.28;;;13.25;55.00
6528;BME280;64597;42.664;23.256;2023-05-12T10:14:35;94856.25;;;13.46;55.68
6528;BME280;64597;42.664;23.256;2023-05-12T10:17:01;94878.56;;;13.50;54.11
6528;BME280;64597;42.664;23.256;2023-05-12T10:19:29;94870.06;;;13.48;54.76
6528;BME280;64597;42.664;23.256;2023-05-12T10:21:56;94871.84;;;13.64;54.89
6528;BME280;64597;42.664;23.256;2023-05-12T10:24:24;94883.19;;;13.60;54.44
6528;BME280;64597;42.664;23.256;2023-05-12T10:26:52;94878.47;;;13.45;53.55
6528;BME280;64597;42.664;23.256;2023-05-12T10:29:20;94867.25;;;13.38;53.75
6528;BME280;64597;42.664;23.256;2023-05-12T10:31:46;94864.31;;;13.56;54.02
6528;BME280;64597;42.664;23.256;2023-05-12T10:34:16;94862.00;;;13.81;53.85
6528;BME280;64597;42.664;23.256;2023-05-12T10:36:47;94855.34;;;14.00;54.01
6528;BME280;64597;42.664;23.256;2023-05-12T10:39:14;94861.75;;;14.04;53.27
6528;BME280;64597;42.664;23.256;2023-05-12T10:41:40;94845.34;;;14.07;52.25
6528;BME280;64597;42.664;23.256;2023-05-12T10:44:07;94840.22;;;14.23;52.56
6528;BME280;64597;42.664;23.256;2023-05-12T10:46:34;94833.53;;;14.42;51.69
6528;BME280;64597;42.664;23.256;2023-05-12T10:49:09;94844.69;;;14.44;49.89
6528;BME280;64597;42.664;23.256;2023-05-12T10:54:09;94835.06;;;14.38;50.99
6528;BME280;64597;42.664;23.256;2023-05-12T11:01:35;94856.06;;;14.18;51.35
6528;BME280;64597;42.664;23.256;2023-05-12T11:04:19;94852.84;;;14.16;51.60
6528;BME280;64597;42.664;23.256;2023-05-12T11:06:57;94838.34;;;14.23;52.19
6528;BME280;64597;42.664;23.256;2023-05-12T11:09:23;94847.81;;;14.14;52.28
6528;BME280;64597;42.664;23.256;2023-05-12T11:11:49;94850.91;;;14.06;51.96
6528;BME280;64597;42.664;23.256;2023-05-12T11:14:16;94854.16;;;14.13;52.26
6528;BME280;64597;42.664;23.256;2023-05-12T11:16:43;94840.34;;;14.11;51.50
6528;BME280;64597;42.664;23.256;2023-05-12T11:19:09;94853.66;;;14.16;51.74
6528;BME280;64597;42.664;23.256;2023-05-12T11:21:35;94854.81;;;14.25;52.02
6528;BME280;64597;42.664;23.256;2023-05-12T11:24:01;94848.66;;;14.20;51.89
6528;BME280;64597;42.664;23.256;2023-05-12T11:26:28;94689.22;;;13.09;51.81
6528;BME280;64597;42.664;23.256;2023-05-12T11:28:56;94863.56;;;14.26;51.58
6528;BME280;64597;42.664;23.256;2023-05-12T11:31:22;94857.47;;;14.25;50.52
6528;BME280;64597;42.664;23.256;2023-05-12T11:33:48;94866.31;;;14.31;50.63
6528;BME280;64597;42.664;23.256;2023-05-12T11:36:14;94864.81;;;14.40;50.86
6528;BME280;64597;42.664;23.256;2023-05-12T11:38:48;94844.69;;;14.44;51.78
6528;BME280;64597;42.664;23.256;2023-05-12T11:41:20;94833.44;;;14.32;51.21
6528;BME280;64597;42.664;23.256;2023-05-12T11:43:46;94856.84;;;14.40;51.18
6528;BME280;64597;42.664;23.256;2023-05-12T11:46:27;94850.06;;;14.49;51.23
6528;BME280;64597;42.664;23.256;2023-05-12T11:48:57;94848.09;;;14.39;50.77
6528;BME280;64597;42.664;23.256;2023-05-12T11:51:24;94838.81;;;14.37;51.07
6528;BME280;64597;42.664;23.256;2023-05-12T11:53:52;94843.47;;;14.56;50.98
6528;BME280;64597;42.664;23.256;2023-05-12T11:56:22;94850.69;;;14.61;50.69
6528;BME280;64597;42.664;23.256;2023-05-12T11:58:55;94841.09;;;14.55;50.64
6528;BME280;64597;42.664;23.256;2023-05-12T12:01:22;94847.88;;;14.46;50.79
6528;BME280;64597;42.664;23.256;2023-05-12T12:03:49;94846.94;;;14.57;50.88
6528;BME280;64597;42.664;23.256;2023-05-12T12:06:16;94847.59;;;14.69;50.93
6528;BME280;64597;42.664;23.256;2023-05-12T12:08:55;94851.50;;;14.61;50.24
6528;BME280;64597;42.664;23.256;2023-05-12T12:11:22;94849.59;;;14.57;50.11
6528;BME280;64597;42.664;23.256;2023-05-12T12:13:50;94855.91;;;14.51;49.83
6528;BME280;64597;42.664;23.256;2023-05-12T12:16:27;94830.00;;;14.63;49.75
6528;BME280;64597;42.664;23.256;2023-05-12T12:18:53;94851.88;;;14.75;50.07
6528;BME280;64597;42.664;23.256;2023-05-12T12:21:19;94860.84;;;14.69;49.96
6528;BME280;64597;42.664;23.256;2023-05-12T12:23:49;94854.00;;;14.73;50.39
6528;BME280;64597;42.664;23.256;2023-05-12T12:26:14;94857.19;;;14.75;49.66
6528;BME280;64597;42.664;23.256;2023-05-12T12:28:42;94843.28;;;14.63;49.59
6528;BME280;64597;42.664;23.256;2023-05-12T12:31:07;94864.59;;;14.73;49.58
6528;BME280;64597;42.664;23.256;2023-05-12T12:33:33;94856.72;;;14.51;50.50
6528;BME280;64597;42.664;23.256;2023-05-12T12:35:59;94848.59;;;14.63;50.65
6528;BME280;64597;42.664;23.256;2023-05-12T12:38:24;94849.22;;;14.75;49.80
6528;BME280;64597;42.664;23.256;2023-05-12T12:40:50;94833.31;;;14.80;49.78
6528;BME280;64597;42.664;23.256;2023-05-12T12:43:15;94835.94;;;14.75;49.36
6528;BME280;64597;42.664;23.256;2023-05-12T12:45:41;94839.06;;;14.67;49.88
6528;BME280;64597;42.664;23.256;2023-05-12T12:48:09;94842.19;;;14.59;48.98
6528;BME280;64597;42.664;23.256;2023-05-12T12:50:34;94844.03;;;14.58;48.59
6528;BME280;64597;42.664;23.256;2023-05-12T12:53:00;94824.44;;;14.33;48.80
6528;BME280;64597;42.664;23.256;2023-05-12T12:55:26;94841.38;;;14.58;49.80
6528;BME280;64597;42.664;23.256;2023-05-12T12:57:51;94843.66;;;14.76;49.17
6528;BME280;64597;42.664;23.256;2023-05-12T13:00:17;94839.66;;;14.74;48.49
6528;BME280;64597;42.664;23.256;2023-05-12T13:02:43;94838.06;;;14.73;48.56
6528;BME280;64597;42.664;23.256;2023-05-12T13:05:09;94835.25;;;14.58;48.68
6528;BME280;64597;42.664;23.256;2023-05-12T13:07:35;94838.97;;;14.57;48.39
6528;BME280;64597;42.664;23.256;2023-05-12T13:10:04;94825.09;;;14.45;47.74
6528;BME280;64597;42.664;23.256;2023-05-12T13:12:29;94822.38;;;14.40;48.47
6528;BME280;64597;42.664;23.256;2023-05-12T13:14:55;94805.88;;;14.33;48.99
6528;BME280;64597;42.664;23.256;2023-05-12T13:17:21;94820.53;;;14.40;49.22
6528;BME280;64597;42.664;23.256;2023-05-12T13:19:47;94821.47;;;14.29;48.59